Terminal Aerodrome Forecast
Issued by NWS

Home | Current Version | Previous Version | Text Only | Print | Product List | Glossary On
Versions: 1 2 3 4 5 6 7 8 9 10 11 12 13 14 15 16 17 18 19 20 21 22 23 24 25
208
FTUS41 KRLX 011320 AAA
TAFCKB
TAF AMD
KCKB 011320Z 0113/0212 22005KT P6SM BKN009 BKN070 OVC090
     FM011800 22007KT P6SM -SHRA VCTS BKN050CB
     FM020800 VRB03KT P6SM -SHRA VCTS OVC028CB
     FM021000 20005KT P6SM -SHRA OVC060=

USA.gov is the U.S. government's official web portal to all federal, state and local government web resources and services.